Castro-Urdiales, Spain
Current Conditions -  °F | °C
As of 3:00 PM on Sunday 25 Jan 2015 (Local Time) from LEBB Reporting Station
Scattered Clouds Scattered Clouds  
Wind Chill: 52°   Ceiling: Unl
Heat Index: 52°   Visibility: 6mi
Dew Point: 39°   Wind: 6mph
Humidity: 62%   Direction: 10°N
Pressure: 30.5"   Gusts: NA
Location:  43.38°N, 3.22°W
Report Text: LEBB 251400Z 01005KT 330V060 9999 FEW035 SCT055 11/04 Q1033 NOSIG
Loading
Personal Weather Stations






























Interactive Weather Map New forecast layout! Learn more

10-Day Weather Forecast

Advertisements
Track Severe Weather on mobile